createdAt,value
2019-05-29T00:01:38.594Z,16.60
2019-05-29T00:04:08.127Z,16.50
2019-05-29T00:06:36.982Z,16.50
2019-05-29T00:09:08.018Z,16.50
2019-05-29T00:11:37.004Z,16.50
2019-05-29T00:14:19.942Z,16.50
2019-05-29T00:16:36.108Z,16.50
2019-05-29T00:19:06.842Z,16.50
2019-05-29T00:21:35.281Z,16.50
2019-05-29T00:24:04.041Z,16.50
2019-05-29T00:26:32.700Z,16.50
2019-05-29T00:29:01.374Z,16.50
2019-05-29T00:31:30.071Z,16.40
2019-05-29T00:33:58.754Z,16.40
2019-05-29T00:36:27.473Z,16.40
2019-05-29T00:38:56.440Z,16.40
2019-05-29T00:41:25.207Z,16.40
2019-05-29T00:43:53.926Z,16.40
2019-05-29T00:46:22.634Z,16.40
2019-05-29T00:48:51.321Z,16.40
2019-05-29T00:51:19.984Z,16.40
2019-05-29T00:53:48.699Z,16.40
2019-05-29T00:56:17.485Z,16.40
2019-05-29T00:58:46.194Z,16.40
2019-05-29T01:01:15.462Z,16.40
2019-05-29T01:03:44.282Z,16.40
2019-05-29T01:06:13.894Z,16.40
2019-05-29T01:08:42.680Z,16.40
2019-05-29T01:11:11.307Z,16.40
2019-05-29T01:13:40.318Z,16.40
2019-05-29T01:16:09.089Z,16.40
2019-05-29T01:18:37.849Z,16.40
2019-05-29T01:21:06.493Z,16.40
2019-05-29T01:23:35.239Z,16.40
2019-05-29T01:26:03.871Z,16.40
2019-05-29T01:28:32.483Z,16.40
2019-05-29T01:31:01.194Z,16.40
2019-05-29T01:33:29.863Z,16.30
2019-05-29T01:35:58.598Z,16.30
2019-05-29T01:38:27.641Z,16.30
2019-05-29T01:40:56.523Z,16.20
2019-05-29T01:43:25.215Z,16.20
2019-05-29T01:45:53.907Z,16.20
2019-05-29T01:48:23.653Z,16.10
2019-05-29T01:50:52.574Z,16.10
2019-05-29T01:53:21.754Z,16.10
2019-05-29T01:55:50.572Z,16.10
2019-05-29T01:58:20.413Z,16.10
2019-05-29T02:00:49.370Z,16.10
2019-05-29T02:03:18.090Z,16.10
2019-05-29T02:05:46.869Z,16.10
2019-05-29T02:08:15.993Z,16.10
2019-05-29T02:10:44.698Z,16.10
2019-05-29T02:13:13.377Z,16.00
2019-05-29T02:15:42.049Z,16.00
2019-05-29T02:18:10.691Z,16.10
2019-05-29T02:20:39.396Z,16.10
2019-05-29T02:23:08.031Z,16.00
2019-05-29T02:25:36.754Z,16.00
2019-05-29T02:28:05.494Z,16.00
2019-05-29T02:30:34.218Z,16.00
2019-05-29T02:33:02.971Z,16.00
2019-05-29T02:35:31.655Z,16.00
2019-05-29T02:38:00.389Z,16.00
2019-05-29T02:40:30.083Z,16.00
2019-05-29T02:42:59.175Z,15.90
2019-05-29T02:45:50.295Z,15.90
2019-05-29T02:47:58.327Z,15.90
2019-05-29T02:50:28.813Z,15.90
2019-05-29T02:52:57.495Z,15.90
2019-05-29T02:55:26.939Z,15.90
2019-05-29T02:57:56.238Z,15.90
2019-05-29T03:00:45.886Z,15.80
2019-05-29T03:03:14.543Z,15.80
2019-05-29T03:05:43.333Z,15.70
2019-05-29T03:08:12.052Z,15.70
2019-05-29T03:10:40.823Z,15.60
2019-05-29T03:13:09.524Z,15.70
2019-05-29T03:15:38.199Z,15.70
2019-05-29T03:18:06.916Z,15.70
2019-05-29T03:20:35.677Z,15.70
2019-05-29T03:23:04.391Z,15.70
2019-05-29T03:25:34.907Z,15.80
2019-05-29T03:28:03.370Z,15.80
2019-05-29T03:30:41.213Z,15.80
2019-05-29T03:33:02.514Z,15.80
2019-05-29T03:35:38.541Z,15.80
2019-05-29T03:38:01.508Z,15.80
2019-05-29T03:40:31.633Z,15.80
2019-05-29T03:43:00.604Z,15.80
2019-05-29T03:45:31.083Z,15.90
2019-05-29T03:47:59.864Z,15.90
2019-05-29T03:50:29.452Z,15.90
2019-05-29T03:52:58.997Z,16.00
2019-05-29T03:55:29.130Z,16.00
2019-05-29T03:57:58.164Z,16.10
2019-05-29T04:00:31.893Z,16.10
2019-05-29T04:02:57.299Z,16.10
2019-05-29T04:05:26.842Z,16.20
2019-05-29T04:07:55.587Z,16.20
2019-05-29T04:10:32.886Z,16.10
2019-05-29T04:13:01.570Z,16.10
2019-05-29T04:15:33.572Z,16.10
2019-05-29T04:18:05.186Z,16.10
2019-05-29T04:20:38.750Z,16.10
2019-05-29T04:23:08.368Z,16.10
2019-05-29T04:25:42.300Z,16.10
2019-05-29T04:28:08.688Z,16.10
2019-05-29T04:30:39.058Z,16.10
2019-05-29T04:33:07.933Z,16.20
2019-05-29T04:35:37.035Z,16.30
2019-05-29T04:38:06.512Z,16.30
2019-05-29T04:40:37.143Z,16.40
2019-05-29T04:43:05.540Z,16.40
2019-05-29T04:45:35.988Z,16.40
2019-05-29T04:48:04.613Z,16.40
2019-05-29T04:50:33.557Z,16.40
2019-05-29T04:53:03.684Z,16.40
2019-05-29T04:55:32.720Z,16.50
2019-05-29T04:58:01.469Z,16.50
2019-05-29T05:00:30.915Z,16.60
2019-05-29T05:02:59.664Z,16.70
2019-05-29T05:05:29.133Z,16.80
2019-05-29T05:07:57.916Z,16.80
2019-05-29T05:10:38.014Z,16.80
2019-05-29T05:13:07.243Z,16.90
2019-05-29T05:15:36.168Z,16.90
2019-05-29T05:18:08.118Z,17.00
2019-05-29T05:20:38.146Z,17.10
2019-05-29T05:23:07.116Z,17.20
2019-05-29T05:25:36.353Z,17.20
2019-05-29T05:28:05.441Z,17.30
2019-05-29T05:30:34.448Z,17.20
2019-05-29T05:33:03.373Z,17.20
2019-05-29T05:35:32.599Z,17.20
2019-05-29T05:38:01.468Z,17.20
2019-05-29T05:40:30.763Z,17.10
2019-05-29T05:42:59.575Z,17.10
2019-05-29T05:45:28.185Z,17.10
2019-05-29T05:47:58.113Z,17.10
2019-05-29T05:50:26.976Z,17.10
2019-05-29T05:52:55.669Z,17.20
2019-05-29T05:55:24.357Z,17.30
2019-05-29T05:57:55.316Z,17.30
2019-05-29T06:00:29.810Z,17.30
2019-05-29T06:02:58.859Z,17.30
2019-05-29T06:05:27.676Z,17.40
2019-05-29T06:07:56.433Z,17.40
2019-05-29T06:10:25.060Z,17.40
2019-05-29T06:12:53.751Z,17.40
2019-05-29T06:15:22.458Z,17.30
2019-05-29T06:18:10.180Z,17.30
2019-05-29T06:20:21.627Z,17.40
2019-05-29T06:22:50.251Z,17.40
2019-05-29T06:25:20.060Z,17.40
2019-05-29T06:27:48.729Z,17.50
2019-05-29T06:30:17.563Z,17.50
2019-05-29T06:32:46.335Z,17.50
2019-05-29T06:35:16.669Z,17.60
2019-05-29T06:37:45.367Z,17.60
2019-05-29T06:40:17.052Z,17.70
2019-05-29T06:42:45.784Z,17.70
2019-05-29T06:45:17.799Z,17.70
2019-05-29T06:47:46.575Z,17.80
2019-05-29T06:50:16.777Z,17.70
2019-05-29T06:52:45.432Z,17.70
2019-05-29T06:55:14.196Z,17.70
2019-05-29T06:57:44.406Z,17.70
2019-05-29T07:00:13.359Z,17.80
2019-05-29T07:02:42.631Z,17.80
2019-05-29T07:05:11.580Z,17.90
2019-05-29T07:07:40.432Z,17.90
2019-05-29T07:10:09.145Z,18.00
2019-05-29T07:12:38.364Z,18.10
2019-05-29T07:15:08.831Z,18.20
2019-05-29T07:17:38.651Z,18.40
2019-05-29T07:20:07.624Z,18.40
2019-05-29T07:22:37.014Z,18.40
2019-05-29T07:25:07.236Z,18.40
2019-05-29T07:27:36.826Z,18.30
2019-05-29T07:30:07.862Z,18.40
2019-05-29T07:32:38.739Z,18.50
2019-05-29T07:35:07.604Z,18.60
2019-05-29T07:37:37.556Z,18.60
2019-05-29T07:40:09.534Z,18.70
2019-05-29T07:42:40.064Z,19.00
2019-05-29T07:45:13.151Z,19.10
2019-05-29T07:47:42.681Z,19.20
2019-05-29T07:50:11.989Z,19.30
2019-05-29T07:52:40.926Z,19.30
2019-05-29T07:55:10.054Z,19.30
2019-05-29T07:57:38.821Z,19.30
2019-05-29T08:00:08.646Z,19.20
2019-05-29T08:02:37.350Z,19.30
2019-05-29T08:05:06.435Z,19.30
2019-05-29T08:07:35.158Z,19.20
2019-05-29T08:10:06.051Z,19.20
2019-05-29T08:12:34.703Z,19.50
2019-05-29T08:15:03.488Z,19.60
2019-05-29T08:17:32.300Z,19.70
2019-05-29T08:20:06.844Z,19.90
2019-05-29T08:22:34.442Z,19.90
2019-05-29T08:25:01.748Z,20.20
2019-05-29T08:27:30.508Z,20.20
2019-05-29T08:29:59.156Z,20.20
2019-05-29T08:32:27.931Z,20.10
2019-05-29T08:34:56.566Z,20.20
2019-05-29T08:37:25.191Z,20.50
2019-05-29T08:39:53.940Z,20.70
2019-05-29T08:42:23.897Z,20.90
2019-05-29T08:44:52.900Z,21.00
2019-05-29T08:47:21.680Z,20.80
2019-05-29T08:49:53.152Z,20.80
2019-05-29T08:52:20.692Z,20.80
2019-05-29T08:54:50.116Z,20.80
2019-05-29T08:57:19.007Z,20.60
2019-05-29T08:59:48.453Z,20.50
2019-05-29T09:02:17.276Z,20.60
2019-05-29T09:04:48.228Z,20.80
2019-05-29T09:07:16.254Z,20.70
2019-05-29T09:09:44.958Z,20.80
2019-05-29T09:12:13.739Z,20.90
2019-05-29T09:14:42.471Z,20.90
2019-05-29T09:17:12.016Z,21.00
2019-05-29T09:19:40.695Z,21.10
2019-05-29T09:22:09.358Z,21.10
2019-05-29T09:24:38.106Z,21.20
2019-05-29T09:27:06.843Z,21.30
2019-05-29T09:29:35.489Z,21.40
2019-05-29T09:32:04.146Z,21.50
2019-05-29T09:34:32.839Z,21.50
2019-05-29T09:37:01.519Z,21.50
2019-05-29T09:39:30.231Z,21.50
2019-05-29T09:41:59.095Z,21.70
2019-05-29T09:44:37.893Z,21.80
2019-05-29T09:46:58.254Z,21.90
2019-05-29T09:49:27.005Z,22.00
2019-05-29T09:51:56.148Z,22.20
2019-05-29T09:54:25.061Z,22.10
2019-05-29T09:56:54.884Z,22.10
2019-05-29T09:59:24.161Z,22.10
2019-05-29T10:01:54.322Z,22.10
2019-05-29T10:04:23.312Z,22.20
2019-05-29T10:06:53.187Z,22.40
2019-05-29T10:09:22.371Z,22.60
2019-05-29T10:11:51.092Z,22.70
2019-05-29T10:14:19.803Z,22.80
2019-05-29T10:16:49.936Z,22.80
2019-05-29T10:19:18.772Z,22.80
2019-05-29T10:21:47.477Z,22.70
2019-05-29T10:24:17.987Z,22.60
2019-05-29T10:26:46.698Z,22.60
2019-05-29T10:29:15.371Z,22.30
2019-05-29T10:31:46.785Z,22.20
2019-05-29T10:34:14.463Z,22.30
2019-05-29T10:36:46.866Z,22.40
2019-05-29T10:39:13.585Z,22.60
2019-05-29T10:41:42.691Z,22.70
2019-05-29T10:44:12.903Z,22.70
2019-05-29T10:46:41.902Z,22.80
2019-05-29T10:49:10.592Z,22.90
2019-05-29T10:51:54.564Z,22.90
2019-05-29T10:54:09.642Z,22.90
2019-05-29T10:56:38.373Z,22.70
2019-05-29T10:59:07.068Z,22.60
2019-05-29T11:01:36.249Z,22.70
2019-05-29T11:04:04.991Z,22.80
2019-05-29T11:06:33.720Z,22.90
2019-05-29T11:09:02.642Z,23.10
2019-05-29T11:11:31.411Z,23.20
2019-05-29T11:14:00.187Z,23.40
2019-05-29T11:16:28.908Z,23.50
2019-05-29T11:18:58.863Z,23.60
2019-05-29T11:21:27.620Z,23.30
2019-05-29T11:23:56.349Z,23.00
2019-05-29T11:26:25.071Z,23.00
2019-05-29T11:28:54.446Z,23.20
2019-05-29T11:31:23.412Z,23.90
2019-05-29T11:33:53.039Z,24.50
2019-05-29T11:36:21.858Z,25.20
2019-05-29T11:38:50.581Z,25.30
2019-05-29T11:41:26.281Z,25.20
2019-05-29T11:43:50.679Z,25.00
2019-05-29T11:46:19.544Z,24.70
2019-05-29T11:48:48.323Z,24.40
2019-05-29T11:51:17.052Z,24.40
2019-05-29T11:53:45.652Z,24.00
2019-05-29T11:56:14.315Z,23.60
2019-05-29T11:58:42.987Z,23.50
2019-05-29T12:01:11.634Z,23.40
2019-05-29T12:04:05.469Z,23.30
2019-05-29T12:06:10.904Z,23.10
2019-05-29T12:08:39.551Z,22.80
2019-05-29T12:11:08.264Z,22.70
2019-05-29T12:13:37.012Z,22.60
2019-05-29T12:16:05.733Z,22.40
2019-05-29T12:18:34.398Z,22.20
2019-05-29T12:21:03.129Z,22.10
2019-05-29T12:23:31.796Z,22.00
2019-05-29T12:26:19.714Z,22.00
2019-05-29T12:28:30.779Z,22.00
2019-05-29T12:31:01.352Z,21.90
2019-05-29T12:33:29.888Z,21.60
2019-05-29T12:35:59.107Z,21.40
2019-05-29T12:38:27.918Z,21.10
2019-05-29T12:40:57.694Z,21.00
2019-05-29T12:43:28.062Z,20.80
2019-05-29T12:45:57.738Z,20.70
2019-05-29T12:48:26.731Z,20.60
2019-05-29T12:50:56.108Z,20.40
2019-05-29T12:53:30.068Z,20.00
2019-05-29T12:55:56.159Z,19.50
2019-05-29T12:58:26.537Z,19.00
2019-05-29T13:00:56.432Z,18.30
2019-05-29T13:03:25.314Z,17.70
2019-05-29T13:05:54.190Z,17.10
2019-05-29T13:08:23.077Z,16.90
2019-05-29T13:10:51.771Z,16.90
2019-05-29T13:13:20.386Z,16.70
2019-05-29T13:15:49.123Z,16.60
2019-05-29T13:18:17.938Z,16.70
2019-05-29T13:20:46.646Z,16.60
2019-05-29T13:23:15.320Z,16.60
2019-05-29T13:25:44.029Z,16.60
2019-05-29T13:28:12.618Z,16.60
2019-05-29T13:30:41.367Z,16.60
2019-05-29T13:33:10.133Z,16.60
2019-05-29T13:35:38.881Z,16.60
2019-05-29T13:38:07.565Z,16.60
2019-05-29T13:40:36.351Z,16.50
2019-05-29T13:43:13.077Z,16.60
2019-05-29T13:45:35.417Z,16.60
2019-05-29T13:48:05.457Z,16.60
2019-05-29T13:50:34.397Z,16.70
2019-05-29T13:53:03.519Z,16.70
2019-05-29T13:55:32.552Z,16.80
2019-05-29T13:58:01.636Z,16.80
2019-05-29T14:00:34.367Z,16.80
2019-05-29T14:03:02.438Z,16.80
2019-05-29T14:05:31.446Z,16.80
2019-05-29T14:08:00.602Z,16.90
2019-05-29T14:10:29.560Z,17.00
2019-05-29T14:12:58.922Z,17.00
2019-05-29T14:15:27.772Z,17.00
2019-05-29T14:17:56.524Z,17.00
2019-05-29T14:20:25.396Z,17.10
2019-05-29T14:22:55.019Z,17.10
2019-05-29T14:25:23.753Z,17.00
2019-05-29T14:27:52.475Z,17.00
2019-05-29T14:30:25.910Z,17.00
2019-05-29T14:32:54.715Z,16.90
2019-05-29T14:35:23.422Z,16.90
2019-05-29T14:37:52.205Z,16.90
2019-05-29T14:40:20.997Z,17.00
2019-05-29T14:42:49.736Z,16.90
2019-05-29T14:45:18.867Z,16.90
2019-05-29T14:47:47.600Z,16.90
2019-05-29T14:50:16.512Z,16.90
2019-05-29T14:52:45.256Z,16.80
2019-05-29T14:55:17.568Z,16.80
2019-05-29T14:57:44.635Z,16.80
2019-05-29T15:00:22.890Z,16.80
2019-05-29T15:02:45.076Z,16.80
2019-05-29T15:05:14.971Z,16.80
2019-05-29T15:07:44.010Z,16.90
2019-05-29T15:10:24.893Z,16.90
2019-05-29T15:12:43.276Z,16.90
2019-05-29T15:15:14.355Z,16.90
2019-05-29T15:17:43.543Z,16.90
2019-05-29T15:20:14.494Z,16.90
2019-05-29T15:22:43.052Z,16.90
2019-05-29T15:25:19.984Z,16.90
2019-05-29T15:27:42.517Z,16.90
2019-05-29T15:30:14.731Z,16.90
2019-05-29T15:32:41.996Z,17.00
2019-05-29T15:35:15.790Z,17.00
2019-05-29T15:37:41.517Z,17.00
2019-05-29T15:40:15.003Z,17.00
2019-05-29T15:42:43.881Z,17.10
2019-05-29T15:45:14.031Z,17.10
2019-05-29T15:47:42.881Z,17.10
2019-05-29T15:50:13.671Z,17.10
2019-05-29T15:52:42.645Z,17.10
2019-05-29T15:55:29.757Z,17.10
2019-05-29T15:57:43.736Z,17.10
2019-05-29T16:00:15.657Z,17.10
2019-05-29T16:02:48.290Z,17.20
2019-05-29T16:05:17.242Z,17.30
2019-05-29T16:07:46.096Z,17.40
2019-05-29T16:10:20.758Z,17.40
2019-05-29T16:12:48.726Z,17.30
2019-05-29T16:15:19.417Z,17.30
2019-05-29T16:20:12.537Z,17.20
2019-05-29T16:22:41.328Z,17.10
2019-05-29T16:25:10.879Z,17.00
2019-05-29T16:27:39.673Z,16.90
2019-05-29T16:30:11.631Z,16.90
2019-05-29T16:32:40.367Z,16.80
2019-05-29T16:35:10.981Z,16.80
2019-05-29T16:37:39.947Z,16.80
2019-05-29T16:40:14.358Z,16.80
2019-05-29T16:42:43.472Z,16.70
2019-05-29T16:45:14.265Z,16.70
2019-05-29T16:47:43.034Z,16.70
2019-05-29T16:50:12.999Z,16.70
2019-05-29T16:52:41.829Z,16.70
2019-05-29T16:55:11.114Z,16.70
2019-05-29T16:57:39.893Z,16.70
2019-05-29T17:00:09.937Z,16.70
2019-05-29T17:02:39.290Z,16.60
2019-05-29T17:05:08.208Z,16.60
2019-05-29T17:07:36.915Z,16.60
2019-05-29T17:10:08.984Z,16.60
2019-05-29T17:12:37.696Z,16.60
2019-05-29T17:15:11.272Z,16.70
2019-05-29T17:17:41.372Z,16.70
2019-05-29T17:20:11.872Z,16.60
2019-05-29T17:22:40.514Z,16.60
2019-05-29T17:25:10.449Z,16.60
2019-05-29T17:27:39.277Z,16.50
2019-05-29T17:30:09.233Z,16.50
2019-05-29T17:32:37.977Z,16.40
2019-05-29T17:35:08.636Z,16.40
2019-05-29T17:37:39.417Z,16.50
2019-05-29T17:40:08.804Z,16.50
2019-05-29T17:42:37.480Z,16.50
2019-05-29T17:45:08.582Z,16.50
2019-05-29T17:47:37.527Z,16.50
2019-05-29T17:50:09.500Z,16.50
2019-05-29T17:52:38.187Z,16.40
2019-05-29T17:55:07.546Z,16.50
2019-05-29T17:57:36.266Z,16.50
2019-05-29T18:00:08.183Z,16.50
2019-05-29T18:02:50.775Z,16.50
2019-05-29T18:05:07.772Z,16.40
2019-05-29T18:07:36.598Z,16.40
2019-05-29T18:10:06.910Z,16.50
2019-05-29T18:12:37.190Z,16.50
2019-05-29T18:15:08.099Z,16.50
2019-05-29T18:17:37.957Z,16.50
2019-05-29T18:20:08.426Z,16.50
2019-05-29T18:22:37.157Z,16.50
2019-05-29T18:25:06.803Z,16.50
2019-05-29T18:27:35.522Z,16.50
2019-05-29T18:30:05.643Z,16.50
2019-05-29T18:32:34.643Z,16.40
2019-05-29T18:35:04.029Z,16.40
2019-05-29T18:37:32.703Z,16.40
2019-05-29T18:40:01.301Z,16.30
2019-05-29T18:42:30.028Z,16.30
2019-05-29T18:44:58.814Z,16.30
2019-05-29T18:47:27.530Z,16.30
2019-05-29T18:49:56.203Z,16.30
2019-05-29T18:52:25.564Z,16.30
2019-05-29T18:54:54.270Z,16.30
2019-05-29T18:57:22.968Z,16.30
2019-05-29T18:59:54.250Z,16.30
2019-05-29T19:02:23.328Z,16.30
2019-05-29T19:04:52.260Z,16.30
2019-05-29T19:07:21.527Z,16.40
2019-05-29T19:09:50.310Z,16.40
2019-05-29T19:12:19.030Z,16.40
2019-05-29T19:14:47.732Z,16.40
2019-05-29T19:17:16.535Z,16.40
2019-05-29T19:19:45.281Z,16.40
2019-05-29T19:22:15.491Z,16.40
2019-05-29T19:24:44.241Z,16.40
2019-05-29T19:27:12.926Z,16.40
2019-05-29T19:29:41.646Z,16.40
2019-05-29T19:32:10.419Z,16.40
2019-05-29T19:34:39.148Z,16.40
2019-05-29T19:37:07.984Z,16.40
2019-05-29T19:39:36.664Z,16.40
2019-05-29T19:42:05.510Z,16.40
2019-05-29T19:44:34.622Z,16.40
2019-05-29T19:47:03.461Z,16.40
2019-05-29T19:49:32.997Z,16.40
2019-05-29T19:52:01.751Z,16.30
2019-05-29T19:54:31.563Z,16.30
2019-05-29T19:57:00.387Z,16.30
2019-05-29T19:59:30.013Z,16.20
2019-05-29T20:01:58.738Z,16.20
2019-05-29T20:04:28.465Z,16.20
2019-05-29T20:06:57.239Z,16.20
2019-05-29T20:09:27.167Z,16.20
2019-05-29T20:11:56.091Z,16.20
2019-05-29T20:14:24.736Z,16.20
2019-05-29T20:16:53.497Z,16.20
2019-05-29T20:19:22.198Z,16.10
2019-05-29T20:21:50.864Z,16.20
2019-05-29T20:24:19.709Z,16.10
2019-05-29T20:26:48.309Z,16.10
2019-05-29T20:29:17.016Z,16.10
2019-05-29T20:31:45.740Z,16.10
2019-05-29T20:34:14.421Z,16.00
2019-05-29T20:36:43.179Z,16.00
2019-05-29T20:39:11.845Z,16.00
2019-05-29T20:41:42.148Z,15.90
2019-05-29T20:44:10.893Z,15.90
2019-05-29T20:46:39.592Z,15.90
2019-05-29T20:49:09.927Z,15.90
2019-05-29T20:51:38.642Z,16.00
2019-05-29T20:54:07.391Z,15.90
2019-05-29T20:56:36.103Z,15.90
2019-05-29T20:59:04.775Z,15.90
2019-05-29T21:01:43.099Z,15.90
2019-05-29T21:04:03.943Z,15.90
2019-05-29T21:06:35.114Z,15.90
2019-05-29T21:09:04.703Z,15.90
2019-05-29T21:11:33.396Z,15.90
2019-05-29T21:14:02.035Z,15.90
2019-05-29T21:16:30.725Z,15.80
2019-05-29T21:18:59.478Z,15.80
2019-05-29T21:21:28.111Z,15.80
2019-05-29T21:23:56.764Z,15.80
2019-05-29T21:26:25.366Z,15.70
2019-05-29T21:28:54.167Z,15.70
2019-05-29T21:31:22.824Z,15.60
2019-05-29T21:33:51.631Z,15.50
2019-05-29T21:36:20.300Z,15.50
2019-05-29T21:38:48.961Z,15.40
2019-05-29T21:41:17.733Z,15.40
2019-05-29T21:43:46.985Z,15.30
2019-05-29T21:46:15.854Z,15.30
2019-05-29T21:48:45.186Z,15.20
2019-05-29T21:51:13.992Z,15.20
2019-05-29T21:53:43.450Z,15.10
2019-05-29T21:56:12.144Z,15.00
2019-05-29T21:58:54.500Z,15.00
2019-05-29T22:01:11.232Z,14.90
2019-05-29T22:03:40.290Z,14.90
2019-05-29T22:06:09.144Z,14.80
2019-05-29T22:08:38.732Z,14.80
2019-05-29T22:11:07.558Z,14.80
2019-05-29T22:13:36.442Z,14.70
2019-05-29T22:16:05.142Z,14.70
2019-05-29T22:18:33.912Z,14.80
2019-05-29T22:21:02.659Z,14.80
2019-05-29T22:23:31.387Z,14.80
2019-05-29T22:26:01.447Z,14.70
2019-05-29T22:28:30.326Z,14.70
2019-05-29T22:30:59.494Z,14.70
2019-05-29T22:33:28.349Z,14.60
2019-05-29T22:35:57.517Z,14.60
2019-05-29T22:38:26.300Z,14.60
2019-05-29T22:40:55.526Z,14.60
2019-05-29T22:43:24.898Z,14.60
2019-05-29T22:45:53.666Z,14.60
2019-05-29T22:48:22.510Z,14.50
2019-05-29T22:50:51.619Z,14.50
2019-05-29T22:53:20.475Z,14.50
2019-05-29T22:55:49.182Z,14.50
2019-05-29T22:58:17.785Z,14.40
2019-05-29T23:00:46.556Z,14.40
2019-05-29T23:03:15.183Z,14.40
2019-05-29T23:05:43.956Z,14.40
2019-05-29T23:08:12.647Z,14.40
2019-05-29T23:10:41.327Z,14.40
2019-05-29T23:13:10.040Z,14.40
2019-05-29T23:15:38.708Z,14.40
2019-05-29T23:18:07.409Z,14.40
2019-05-29T23:20:36.047Z,14.40
2019-05-29T23:23:04.709Z,14.40
2019-05-29T23:25:33.419Z,14.30
2019-05-29T23:28:03.217Z,14.30
2019-05-29T23:30:32.031Z,14.30
2019-05-29T23:33:01.146Z,14.30
2019-05-29T23:35:29.941Z,14.20
2019-05-29T23:37:59.198Z,14.30
2019-05-29T23:40:27.979Z,14.20
2019-05-29T23:42:57.311Z,14.20
2019-05-29T23:45:26.082Z,14.20
2019-05-29T23:47:55.446Z,14.10
2019-05-29T23:50:24.206Z,14.10
2019-05-29T23:52:53.606Z,14.20
2019-05-29T23:55:22.405Z,14.10
2019-05-29T23:57:51.087Z,14.10
